KMML/MML METAR and TAF weather

Enter ICAO airport designator
Station Type Date Time Source
KMML METAR 2020/01/27 10:56 UTC NOAA

KMML 271056Z AUTO 34015KT 5SM BR OVC003 M06/M06 A3002 RMK AO2 SLP184 T10561061 FZRANO


Station Type Date Time Source
KMML Decoded METAR 2020/01/27 10:56 UTC NOAA

Marshall, Southwest Minnesota Regional Airport - Marshall/Ryan Field, MN, United States (KMML) 44-27N 095-49W
Jan 27, 2020 - 05:56 AM EST / 2020.01.27 1056 UTC
Wind: from the NNW (340 degrees) at 17 MPH (15 KT):0
Visibility: 5 mile(s):0
Sky conditions: overcast
Weather: mist
Temperature: 21.9 F (-5.6 C)
Windchill: 8 F (-13 C):1
Dew Point: 21.0 F (-6.1 C)
Relative Humidity: 96%
Pressure (altimeter): 30.02 in. Hg (1016 hPa)
ob: KMML 271056Z AUTO 34015KT 5SM BR OVC003 M06/M06 A3002 RMK AO2 SLP184 T10561061 FZRANO
cycle: 11

Station Type Date Time Source
KMML TAF UTC NOAA

Error!

Example: see airport list